Time,TemperatureF,DewpointF,PressureIn,WindDirection,WindDirectionDegrees,WindSpeedMPH,WindSpeedGustMPH,Humidity,HourlyPrecipIn,Conditions,Clouds,dailyrainin,SoftwareType,DateUTC
2013-12-15 00:02:00,15.7,15.7,29.91,SE,136,19.1,31.1,100,0.00,,,0.00,VWS V14.00,2013-12-15 05:02:00,
2013-12-15 00:08:00,15.4,15.4,29.91,SE,139,8.4,31.1,100,0.00,,,0.00,VWS V14.00,2013-12-15 05:08:00,
2013-12-15 00:14:00,15.2,15.2,29.90,East,80,13.2,32.0,100,0.00,,,0.00,VWS V14.00,2013-12-15 05:14:00,
2013-12-15 00:17:00,15.1,15.1,29.89,ESE,111,14.4,32.0,100,0.00,,,0.00,VWS V14.00,2013-12-15 05:17:00,
2013-12-15 00:23:00,14.9,14.9,29.89,SSE,167,12.2,32.0,100,0.00,,,0.00,VWS V14.00,2013-12-15 05:23:00,
2013-12-15 00:26:00,14.8,14.8,29.90,West,271,0.0,32.0,100,0.00,,,0.00,VWS V14.00,2013-12-15 05:26:00,
2013-12-15 00:32:00,14.8,14.8,29.90,NNE,18,7.1,32.0,100,0.00,,,0.00,VWS V14.00,2013-12-15 05:32:00,
2013-12-15 00:38:00,14.7,14.7,29.90,SE,132,8.8,32.0,100,0.00,,,0.00,VWS V14.00,2013-12-15 05:38:00,
2013-12-15 00:44:00,14.6,14.6,29.87,East,96,5.6,32.0,100,0.00,,,0.00,VWS V14.00,2013-12-15 05:44:00,
2013-12-15 00:50:00,14.7,14.7,29.85,SE,143,22.0,32.0,100,0.00,,,0.00,VWS V14.00,2013-12-15 05:50:00,
2013-12-15 00:56:00,14.9,14.9,29.86,ESE,108,10.4,32.0,100,0.00,,,0.00,VWS V14.00,2013-12-15 05:56:00,
2013-12-15 01:02:00,14.9,14.9,29.85,ESE,121,4.9,32.0,100,0.00,,,0.00,VWS V14.00,2013-12-15 06:02:00,
2013-12-15 01:08:00,14.9,14.9,29.86,ESE,104,7.2,32.0,100,0.00,,,0.00,VWS V14.00,2013-12-15 06:08:00,
2013-12-15 01:14:00,15.0,15.0,29.86,East,86,14.7,32.0,100,0.00,,,0.00,VWS V14.00,2013-12-15 06:14:00,
2013-12-15 01:20:00,15.2,15.2,29.84,SE,127,11.4,32.0,100,0.00,,,0.00,VWS V14.00,2013-12-15 06:20:00,
2013-12-15 01:26:00,15.2,15.2,29.84,ESE,118,7.5,32.0,100,0.00,,,0.00,VWS V14.00,2013-12-15 06:26:00,
2013-12-15 01:32:00,15.2,15.2,29.82,ESE,120,12.1,32.0,100,0.00,,,0.00,VWS V14.00,2013-12-15 06:32:00,
2013-12-15 01:38:00,15.3,15.3,29.83,ESE,117,8.7,32.0,100,0.00,,,0.00,VWS V14.00,2013-12-15 06:38:00,
2013-12-15 01:44:00,15.4,15.4,29.83,ESE,120,6.2,32.0,100,0.00,,,0.00,VWS V14.00,2013-12-15 06:44:00,
2013-12-15 01:50:00,15.4,15.4,29.79,ESE,111,0.0,33.3,100,0.00,,,0.00,VWS V14.00,2013-12-15 06:50:00,
2013-12-15 01:56:00,15.3,15.3,29.80,East,79,9.7,33.3,100,0.00,,,0.00,VWS V14.00,2013-12-15 06:56:00,
2013-12-15 02:02:00,15.2,15.2,29.79,ESE,115,7.3,33.3,100,0.00,,,0.00,VWS V14.00,2013-12-15 07:02:00,
2013-12-15 02:08:00,15.2,15.2,29.80,South,180,10.2,33.3,100,0.00,,,0.00,VWS V14.00,2013-12-15 07:08:00,
2013-12-15 02:14:00,15.0,15.0,29.79,East,94,5.8,33.3,100,0.00,,,0.00,VWS V14.00,2013-12-15 07:14:00,
2013-12-15 02:20:00,14.9,14.9,29.77,ESE,115,7.8,33.3,100,0.00,,,0.00,VWS V14.00,2013-12-15 07:20:00,
2013-12-15 02:26:00,15.1,15.1,29.76,ESE,111,4.7,36.8,100,0.00,,,0.00,VWS V14.00,2013-12-15 07:26:00,
2013-12-15 02:32:00,15.1,15.1,29.75,SSE,165,15.2,36.8,100,0.00,,,0.00,VWS V14.00,2013-12-15 07:32:00,
2013-12-15 02:38:00,15.1,15.1,29.72,ESE,107,16.4,36.8,100,0.00,,,0.00,VWS V14.00,2013-12-15 07:38:00,
2013-12-15 02:44:00,15.6,15.6,29.71,SSE,160,25.9,36.8,100,0.00,,,0.00,VWS V14.00,2013-12-15 07:44:00,
2013-12-15 02:50:00,16.0,16.0,29.73,SE,146,15.4,36.8,100,0.00,,,0.00,VWS V14.00,2013-12-15 07:50:00,
2013-12-15 02:56:00,16.4,16.4,29.74,East,98,10.9,36.8,100,0.00,,,0.00,VWS V14.00,2013-12-15 07:56:00,
2013-12-15 03:02:00,16.2,16.2,29.72,ESE,107,4.5,36.8,100,0.00,,,0.00,VWS V14.00,2013-12-15 08:02:00,
2013-12-15 03:08:00,16.0,16.0,29.71,East,98,3.3,36.8,100,0.00,,,0.00,VWS V14.00,2013-12-15 08:08:00,
2013-12-15 03:14:00,16.0,16.0,29.69,SE,125,8.6,36.8,100,0.00,,,0.00,VWS V14.00,2013-12-15 08:14:00,
2013-12-15 03:20:00,16.0,16.0,29.66,ENE,62,5.1,36.8,100,0.00,,,0.00,VWS V14.00,2013-12-15 08:20:00,
2013-12-15 03:26:00,15.9,15.9,29.67,South,181,0.0,36.8,100,0.00,,,0.00,VWS V14.00,2013-12-15 08:26:00,
2013-12-15 03:32:00,16.1,16.1,29.65,ESE,108,4.2,36.8,100,0.00,,,0.00,VWS V14.00,2013-12-15 08:32:00,
2013-12-15 03:38:00,15.9,15.9,29.64,NE,52,8.2,36.8,100,0.00,,,0.00,VWS V14.00,2013-12-15 08:38:00,
2013-12-15 03:44:00,15.8,15.8,29.63,SSW,193,8.4,36.8,100,0.00,,,0.00,VWS V14.00,2013-12-15 08:44:00,
2013-12-15 03:50:00,15.7,15.7,29.64,SSE,163,9.9,36.8,100,0.00,,,0.00,VWS V14.00,2013-12-15 08:50:00,
2013-12-15 03:56:00,15.5,15.5,29.64,SSE,150,0.0,36.8,100,0.00,,,0.00,VWS V14.00,2013-12-15 08:56:00,
2013-12-15 04:02:00,15.7,15.7,29.63,East,89,12.0,36.8,100,0.00,,,0.00,VWS V14.00,2013-12-15 09:02:00,
2013-12-15 04:08:00,15.8,15.8,29.59,South,172,0.0,36.8,100,0.00,,,0.00,VWS V14.00,2013-12-15 09:08:00,
2013-12-15 04:14:00,15.8,15.8,29.58,South,176,0.0,36.8,100,0.00,,,0.00,VWS V14.00,2013-12-15 09:14:00,
2013-12-15 04:20:00,15.9,15.9,29.56,ESE,110,15.6,36.8,100,0.00,,,0.00,VWS V14.00,2013-12-15 09:20:00,
2013-12-15 04:26:00,15.9,15.9,29.56,SSW,198,6.0,36.8,100,0.00,,,0.00,VWS V14.00,2013-12-15 09:26:00,
2013-12-15 04:32:00,16.1,16.1,29.58,NNE,20,12.2,36.8,100,0.00,,,0.00,VWS V14.00,2013-12-15 09:32:00,
2013-12-15 04:39:00,16.5,16.5,29.59,SSE,156,7.1,36.8,100,0.00,,,0.00,VWS V14.00,2013-12-15 09:39:00,
2013-12-15 04:45:00,17.0,17.0,29.58,SE,146,21.6,36.8,100,0.00,,,0.00,VWS V14.00,2013-12-15 09:45:00,
2013-12-15 04:51:00,17.0,17.0,29.57,SSW,194,8.0,36.8,100,0.00,,,0.00,VWS V14.00,2013-12-15 09:51:00,
2013-12-15 04:57:00,17.4,17.4,29.54,SE,134,18.7,36.8,100,0.00,,,0.00,VWS V14.00,2013-12-15 09:57:00,
2013-12-15 05:03:00,17.3,17.3,29.53,SE,136,7.0,36.8,100,0.00,,,0.00,VWS V14.00,2013-12-15 10:03:00,
2013-12-15 05:09:00,17.7,17.7,29.54,NNW,328,4.3,36.8,100,0.00,,,0.00,VWS V14.00,2013-12-15 10:09:00,
2013-12-15 05:15:00,17.8,17.8,29.54,ESE,114,8.3,36.8,100,0.00,,,0.00,VWS V14.00,2013-12-15 10:15:00,
2013-12-15 05:21:00,17.7,17.7,29.50,SSW,198,7.8,36.8,100,0.00,,,0.00,VWS V14.00,2013-12-15 10:21:00,
2013-12-15 05:27:00,17.8,17.8,29.53,East,90,15.7,36.8,100,0.00,,,0.00,VWS V14.00,2013-12-15 10:27:00,
2013-12-15 05:33:00,17.8,17.8,29.53,ESE,104,7.6,36.8,100,0.00,,,0.00,VWS V14.00,2013-12-15 10:33:00,
2013-12-15 05:39:00,18.0,18.0,29.50,ESE,103,15.7,36.8,100,0.00,,,0.00,VWS V14.00,2013-12-15 10:39:00,
2013-12-15 05:45:00,18.1,18.1,29.50,East,101,12.4,36.8,100,0.00,,,0.00,VWS V14.00,2013-12-15 10:45:00,
2013-12-15 05:51:00,18.2,18.2,29.51,East,86,13.0,36.8,100,0.00,,,0.00,VWS V14.00,2013-12-15 10:51:00,
2013-12-15 05:57:00,18.4,18.4,29.48,NNE,31,11.7,36.8,100,0.00,,,0.00,VWS V14.00,2013-12-15 10:57:00,
2013-12-15 06:03:00,18.8,18.8,29.47,SE,143,7.9,36.8,100,0.00,,,0.00,VWS V14.00,2013-12-15 11:03:00,
2013-12-15 06:09:00,18.9,18.9,29.51,SSE,150,6.6,36.8,100,0.00,,,0.00,VWS V14.00,2013-12-15 11:09:00,
2013-12-15 06:15:00,19.1,19.1,29.48,East,89,13.4,36.8,100,0.00,,,0.00,VWS V14.00,2013-12-15 11:15:00,
2013-12-15 06:21:00,19.3,19.3,29.50,East,96,11.4,36.8,100,0.00,,,0.00,VWS V14.00,2013-12-15 11:21:00,
2013-12-15 06:27:00,19.4,19.4,29.51,NNE,20,5.4,36.8,100,0.00,,,0.00,VWS V14.00,2013-12-15 11:27:00,
2013-12-15 06:33:00,19.5,19.5,29.53,SSE,162,4.9,36.8,100,0.00,,,0.00,VWS V14.00,2013-12-15 11:33:00,
2013-12-15 06:39:00,19.6,19.6,29.52,South,176,7.0,36.8,100,0.00,,,0.00,VWS V14.00,2013-12-15 11:39:00,
2013-12-15 06:45:00,19.8,19.8,29.49,East,98,0.0,36.8,100,0.00,,,0.00,VWS V14.00,2013-12-15 11:45:00,
2013-12-15 06:51:00,20.0,20.0,29.50,NNE,32,9.1,36.8,100,0.00,,,0.00,VWS V14.00,2013-12-15 11:51:00,
2013-12-15 06:57:00,20.0,20.0,29.50,NNE,13,4.3,36.8,100,0.00,,,0.00,VWS V14.00,2013-12-15 11:57:00,
2013-12-15 07:03:00,20.1,20.1,29.50,NNE,32,7.5,36.8,100,0.00,,,0.00,VWS V14.00,2013-12-15 12:03:00,
2013-12-15 07:09:00,20.3,20.3,29.47,North,356,0.0,36.8,100,0.00,,,0.00,VWS V14.00,2013-12-15 12:09:00,
2013-12-15 07:15:00,20.5,20.5,29.48,ENE,59,3.5,36.8,100,0.00,,,0.00,VWS V14.00,2013-12-15 12:15:00,
2013-12-15 07:21:00,20.3,20.3,29.47,NW,326,10.3,36.8,100,0.00,,,0.00,VWS V14.00,2013-12-15 12:21:00,
2013-12-15 07:27:00,20.7,20.7,29.48,West,262,6.2,36.8,100,0.00,,,0.00,VWS V14.00,2013-12-15 12:27:00,
2013-12-15 07:33:00,20.6,20.6,29.48,NE,53,7.8,36.8,100,0.00,,,0.00,VWS V14.00,2013-12-15 12:33:00,
2013-12-15 07:39:00,20.7,20.7,29.48,ESE,107,11.6,36.8,100,0.00,,,0.00,VWS V14.00,2013-12-15 12:39:00,
2013-12-15 07:45:00,20.7,20.7,29.47,SE,132,6.1,36.8,100,0.00,,,0.00,VWS V14.00,2013-12-15 12:45:00,
2013-12-15 07:51:00,20.9,20.9,29.47,SE,136,5.7,36.8,100,0.00,,,0.00,VWS V14.00,2013-12-15 12:51:00,
2013-12-15 07:57:00,20.9,20.9,29.46,NNE,14,10.7,36.8,100,0.00,,,0.00,VWS V14.00,2013-12-15 12:57:00,
2013-12-15 08:03:00,20.7,20.7,29.46,ESE,122,6.8,36.8,100,0.00,,,0.00,VWS V14.00,2013-12-15 13:03:00,
2013-12-15 08:09:00,20.9,20.9,29.45,NNW,342,0.0,36.8,100,0.00,,,0.00,VWS V14.00,2013-12-15 13:09:00,
2013-12-15 08:15:00,20.9,20.9,29.47,NNE,22,8.3,36.8,100,0.00,,,0.00,VWS V14.00,2013-12-15 13:15:00,
2013-12-15 08:21:00,21.1,21.1,29.47,NNE,14,6.1,36.8,100,0.00,,,0.00,VWS V14.00,2013-12-15 13:21:00,
2013-12-15 08:27:00,21.1,21.1,29.48,NNW,330,0.0,36.8,100,0.00,,,0.00,VWS V14.00,2013-12-15 13:27:00,
2013-12-15 08:33:00,21.2,21.2,29.48,NNE,24,4.8,36.8,100,0.00,,,0.00,VWS V14.00,2013-12-15 13:33:00,
2013-12-15 08:39:00,21.3,21.3,29.48,NNW,339,0.0,36.8,100,0.00,,,0.00,VWS V14.00,2013-12-15 13:39:00,
2013-12-15 08:45:00,21.5,21.5,29.47,NNE,14,0.0,36.8,100,0.00,,,0.00,VWS V14.00,2013-12-15 13:45:00,
2013-12-15 08:51:00,21.4,21.4,29.46,NW,315,0.0,36.8,100,0.00,,,0.00,VWS V14.00,2013-12-15 13:51:00,
2013-12-15 08:57:00,21.4,21.4,29.47,NNE,13,2.4,36.8,100,0.00,,,0.00,VWS V14.00,2013-12-15 13:57:00,
2013-12-15 09:03:00,21.5,21.5,29.47,North,11,0.0,36.8,100,0.00,,,0.00,VWS V14.00,2013-12-15 14:03:00,
2013-12-15 09:09:00,21.6,21.6,29.47,North,11,0.0,36.8,100,0.00,,,0.00,VWS V14.00,2013-12-15 14:09:00,
2013-12-15 09:15:00,21.6,21.6,29.47,North,11,0.0,36.8,100,0.00,,,0.00,VWS V14.00,2013-12-15 14:15:00,
2013-12-15 09:21:00,21.5,21.5,29.47,North,8,5.5,36.8,100,0.00,,,0.00,VWS V14.00,2013-12-15 14:21:00,
2013-12-15 09:27:00,21.5,21.5,29.47,North,10,0.0,36.8,100,0.00,,,0.00,VWS V14.00,2013-12-15 14:27:00,
2013-12-15 09:33:00,21.5,21.5,29.48,North,10,0.0,36.8,100,0.00,,,0.00,VWS V14.00,2013-12-15 14:33:00,
2013-12-15 09:39:00,21.6,21.6,29.48,North,10,0.0,36.8,100,0.00,,,0.00,VWS V14.00,2013-12-15 14:39:00,
2013-12-15 09:45:00,21.7,21.7,29.48,North,10,0.0,36.8,100,0.00,,,0.00,VWS V14.00,2013-12-15 14:45:00,
2013-12-15 09:51:00,21.7,21.7,29.48,North,8,0.0,36.8,100,0.00,,,0.00,VWS V14.00,2013-12-15 14:51:00,
2013-12-15 09:58:00,21.7,21.7,29.49,North,8,0.0,36.8,100,0.00,,,0.00,VWS V14.00,2013-12-15 14:58:00,
2013-12-15 10:04:00,21.8,21.8,29.49,North,8,0.0,36.8,100,0.00,,,0.00,VWS V14.00,2013-12-15 15:04:00,
2013-12-15 10:10:00,21.8,21.8,29.49,North,8,0.0,36.8,100,0.00,,,0.00,VWS V14.00,2013-12-15 15:10:00,
2013-12-15 10:16:00,21.9,21.9,29.48,North,8,0.0,36.8,100,0.00,,,0.00,VWS V14.00,2013-12-15 15:16:00,
2013-12-15 10:22:00,21.9,21.9,29.48,North,8,0.0,36.8,100,0.00,,,0.00,VWS V14.00,2013-12-15 15:22:00,
2013-12-15 10:28:00,22.1,22.1,29.48,North,8,0.0,36.8,100,0.00,,,0.00,VWS V14.00,2013-12-15 15:28:00,
2013-12-15 10:34:00,22.0,22.0,29.48,North,8,0.0,36.8,100,0.00,,,0.00,VWS V14.00,2013-12-15 15:34:00,
2013-12-15 10:40:00,21.9,21.9,29.47,North,8,0.0,36.8,100,0.00,,,0.00,VWS V14.00,2013-12-15 15:40:00,
2013-12-15 10:46:00,22.0,22.0,29.46,North,8,0.0,36.8,100,0.00,,,0.00,VWS V14.00,2013-12-15 15:46:00,
2013-12-15 10:52:00,22.1,22.1,29.46,North,8,0.0,36.8,100,0.00,,,0.00,VWS V14.00,2013-12-15 15:52:00,
2013-12-15 10:58:00,22.3,22.3,29.45,North,8,0.0,36.8,100,0.00,,,0.00,VWS V14.00,2013-12-15 15:58:00,
2013-12-15 11:04:00,22.4,22.4,29.45,North,8,0.0,36.8,100,0.00,,,0.00,VWS V14.00,2013-12-15 16:04:00,
2013-12-15 11:10:00,22.6,22.6,29.43,North,8,0.0,36.8,100,0.00,,,0.00,VWS V14.00,2013-12-15 16:10:00,
2013-12-15 11:16:00,22.8,22.8,29.43,North,8,0.0,36.8,100,0.00,,,0.00,VWS V14.00,2013-12-15 16:16:00,
2013-12-15 11:22:00,23.1,23.1,29.43,North,8,0.0,36.8,100,0.00,,,0.00,VWS V14.00,2013-12-15 16:22:00,
2013-12-15 11:28:00,23.2,23.2,29.43,North,8,0.0,36.8,100,0.00,,,0.00,VWS V14.00,2013-12-15 16:28:00,
2013-12-15 11:34:00,23.3,23.3,29.42,North,8,0.0,36.8,100,0.00,,,0.00,VWS V14.00,2013-12-15 16:34:00,
2013-12-15 11:40:00,23.4,23.4,29.43,North,8,0.0,36.8,100,0.00,,,0.00,VWS V14.00,2013-12-15 16:40:00,
2013-12-15 11:46:00,23.3,23.3,29.42,North,8,0.0,36.8,100,0.00,,,0.00,VWS V14.00,2013-12-15 16:46:00,
2013-12-15 11:52:00,23.2,23.2,29.42,North,8,0.0,36.8,100,0.00,,,0.00,VWS V14.00,2013-12-15 16:52:00,
2013-12-15 11:58:00,23.3,23.3,29.42,North,8,0.0,36.8,100,0.00,,,0.00,VWS V14.00,2013-12-15 16:58:00,
2013-12-15 12:04:00,23.1,23.1,29.43,North,8,0.0,36.8,100,0.00,,,0.00,VWS V14.00,2013-12-15 17:04:00,
2013-12-15 12:10:00,23.1,23.1,29.42,North,8,0.0,36.8,100,0.00,,,0.00,VWS V14.00,2013-12-15 17:10:00,
2013-12-15 12:16:00,23.1,23.1,29.42,North,8,0.0,36.8,100,0.00,,,0.00,VWS V14.00,2013-12-15 17:16:00,
2013-12-15 12:22:00,23.1,23.1,29.43,North,8,0.0,36.8,100,0.00,,,0.00,VWS V14.00,2013-12-15 17:22:00,
2013-12-15 12:28:00,23.2,23.2,29.42,North,8,0.0,36.8,100,0.00,,,0.00,VWS V14.00,2013-12-15 17:28:00,
2013-12-15 12:34:00,23.1,23.1,29.43,North,8,0.0,36.8,100,0.00,,,0.00,VWS V14.00,2013-12-15 17:34:00,
2013-12-15 12:40:00,23.1,23.1,29.43,North,8,0.0,36.8,100,0.00,,,0.00,VWS V14.00,2013-12-15 17:40:00,
2013-12-15 12:46:00,23.0,23.0,29.42,North,8,0.0,36.8,100,0.00,,,0.00,VWS V14.00,2013-12-15 17:46:00,
2013-12-15 12:52:00,23.0,23.0,29.42,North,8,0.0,36.8,100,0.00,,,0.00,VWS V14.00,2013-12-15 17:52:00,
2013-12-15 12:58:00,23.1,23.1,29.42,North,8,0.0,36.8,100,0.00,,,0.00,VWS V14.00,2013-12-15 17:58:00,
2013-12-15 13:04:00,23.3,23.3,29.42,North,8,0.0,36.8,100,0.00,,,0.00,VWS V14.00,2013-12-15 18:04:00,
2013-12-15 13:10:00,23.4,23.4,29.43,North,8,0.0,36.8,100,0.00,,,0.00,VWS V14.00,2013-12-15 18:10:00,
2013-12-15 13:16:00,23.5,23.5,29.42,North,8,0.0,36.8,100,0.00,,,0.00,VWS V14.00,2013-12-15 18:16:00,
2013-12-15 13:22:00,23.4,23.4,29.42,North,8,0.0,36.8,100,0.00,,,0.00,VWS V14.00,2013-12-15 18:22:00,
2013-12-15 13:28:00,23.3,23.3,29.42,North,8,0.0,36.8,100,0.00,,,0.00,VWS V14.00,2013-12-15 18:28:00,
2013-12-15 13:34:00,23.2,23.2,29.42,North,8,0.0,36.8,100,0.00,,,0.00,VWS V14.00,2013-12-15 18:34:00,
2013-12-15 13:40:00,23.1,23.1,29.43,North,8,0.0,36.8,100,0.00,,,0.00,VWS V14.00,2013-12-15 18:40:00,
2013-12-15 13:46:00,23.1,23.1,29.43,North,8,0.0,36.8,100,0.00,,,0.00,VWS V14.00,2013-12-15 18:46:00,
2013-12-15 13:52:00,22.9,22.9,29.43,North,8,0.0,36.8,100,0.00,,,0.00,VWS V14.00,2013-12-15 18:52:00,
2013-12-15 13:58:00,22.7,22.7,29.43,North,8,0.0,36.8,100,0.00,,,0.00,VWS V14.00,2013-12-15 18:58:00,
2013-12-15 14:04:00,22.6,22.6,29.43,North,8,0.0,36.8,100,0.00,,,0.00,VWS V14.00,2013-12-15 19:04:00,
2013-12-15 14:10:00,22.6,22.6,29.43,North,8,0.0,36.8,100,0.00,,,0.00,VWS V14.00,2013-12-15 19:10:00,
2013-12-15 14:16:00,22.4,22.4,29.43,North,8,0.0,36.8,100,0.00,,,0.00,VWS V14.00,2013-12-15 19:16:00,
2013-12-15 14:22:00,22.2,22.2,29.44,North,8,0.0,36.8,100,0.00,,,0.00,VWS V14.00,2013-12-15 19:22:00,
2013-12-15 14:28:00,22.3,22.3,29.44,North,8,0.0,36.8,100,0.00,,,0.00,VWS V14.00,2013-12-15 19:28:00,
2013-12-15 14:34:00,22.3,22.3,29.45,North,8,0.0,36.8,100,0.00,,,0.00,VWS V14.00,2013-12-15 19:34:00,
2013-12-15 14:40:00,22.2,22.2,29.45,North,8,0.0,36.8,100,0.00,,,0.00,VWS V14.00,2013-12-15 19:40:00,
2013-12-15 14:46:00,22.2,22.2,29.45,North,8,0.0,36.8,100,0.00,,,0.00,VWS V14.00,2013-12-15 19:46:00,
2013-12-15 14:52:00,22.0,22.0,29.46,North,8,0.0,36.8,100,0.00,,,0.00,VWS V14.00,2013-12-15 19:52:00,
2013-12-15 14:58:00,22.1,22.1,29.46,North,8,0.0,36.8,100,0.00,,,0.00,VWS V14.00,2013-12-15 19:58:00,
2013-12-15 15:04:00,22.0,22.0,29.47,North,8,0.0,36.8,100,0.00,,,0.00,VWS V14.00,2013-12-15 20:04:00,
2013-12-15 15:11:00,21.9,21.9,29.47,North,8,0.0,36.8,100,0.00,,,0.00,VWS V14.00,2013-12-15 20:11:00,
2013-12-15 15:14:00,21.8,21.8,29.47,North,8,0.0,36.8,100,0.00,,,0.00,VWS V14.00,2013-12-15 20:14:00,
2013-12-15 15:20:00,21.8,21.8,29.48,North,8,0.0,36.8,100,0.00,,,0.00,VWS V14.00,2013-12-15 20:20:00,
2013-12-15 15:26:00,21.7,21.7,29.48,North,8,0.0,36.8,100,0.00,,,0.00,VWS V14.00,2013-12-15 20:26:00,
2013-12-15 15:32:00,21.8,21.8,29.48,North,8,0.0,36.8,100,0.00,,,0.00,VWS V14.00,2013-12-15 20:32:00,
2013-12-15 15:38:00,21.6,21.6,29.48,North,8,0.0,36.8,100,0.00,,,0.00,VWS V14.00,2013-12-15 20:38:00,
2013-12-15 15:44:00,21.6,21.6,29.48,North,8,0.0,36.8,100,0.00,,,0.00,VWS V14.00,2013-12-15 20:44:00,
2013-12-15 15:50:00,21.7,21.7,29.48,North,8,0.0,36.8,100,0.00,,,0.00,VWS V14.00,2013-12-15 20:50:00,
2013-12-15 15:56:00,21.7,21.7,29.49,North,8,0.0,36.8,100,0.00,,,0.00,VWS V14.00,2013-12-15 20:56:00,
2013-12-15 16:02:00,21.6,21.6,29.49,North,8,0.0,36.8,100,0.00,,,0.00,VWS V14.00,2013-12-15 21:02:00,
2013-12-15 16:08:00,21.6,21.6,29.49,North,8,0.0,36.8,100,0.00,,,0.00,VWS V14.00,2013-12-15 21:08:00,
2013-12-15 16:14:00,21.7,21.7,29.49,North,8,0.0,36.8,100,0.00,,,0.00,VWS V14.00,2013-12-15 21:14:00,
2013-12-15 16:20:00,21.7,21.7,29.49,North,8,0.0,36.8,100,0.00,,,0.00,VWS V14.00,2013-12-15 21:20:00,
2013-12-15 16:26:00,21.6,21.6,29.50,North,8,0.0,36.8,100,0.00,,,0.00,VWS V14.00,2013-12-15 21:26:00,
2013-12-15 16:32:00,21.6,21.6,29.50,North,8,0.0,36.8,100,0.00,,,0.00,VWS V14.00,2013-12-15 21:32:00,
2013-12-15 16:38:00,21.5,21.5,29.50,North,8,0.0,36.8,100,0.00,,,0.00,VWS V14.00,2013-12-15 21:38:00,
2013-12-15 16:44:00,21.4,21.4,29.51,North,8,0.0,36.8,100,0.00,,,0.00,VWS V14.00,2013-12-15 21:44:00,
2013-12-15 16:50:00,21.5,21.5,29.51,North,8,0.0,36.8,100,0.00,,,0.00,VWS V14.00,2013-12-15 21:50:00,
2013-12-15 16:56:00,21.4,21.4,29.51,North,8,0.0,36.8,100,0.00,,,0.00,VWS V14.00,2013-12-15 21:56:00,
2013-12-15 17:02:00,21.4,21.4,29.51,North,8,0.0,36.8,100,0.00,,,0.00,VWS V14.00,2013-12-15 22:02:00,
2013-12-15 17:08:00,21.5,21.5,29.51,North,8,0.0,36.8,100,0.00,,,0.00,VWS V14.00,2013-12-15 22:08:00,
2013-12-15 17:14:00,21.4,21.4,29.51,North,8,0.0,36.8,100,0.00,,,0.00,VWS V14.00,2013-12-15 22:14:00,
2013-12-15 17:20:00,21.4,21.4,29.51,North,8,0.0,36.8,100,0.00,,,0.00,VWS V14.00,2013-12-15 22:20:00,
2013-12-15 17:26:00,21.3,21.3,29.51,North,8,0.0,36.8,100,0.00,,,0.00,VWS V14.00,2013-12-15 22:26:00,
2013-12-15 17:32:00,21.4,21.4,29.51,North,8,0.0,36.8,100,0.00,,,0.00,VWS V14.00,2013-12-15 22:32:00,
2013-12-15 17:38:00,21.3,21.3,29.52,North,8,0.0,36.8,100,0.00,,,0.00,VWS V14.00,2013-12-15 22:38:00,
2013-12-15 17:44:00,21.2,21.2,29.52,North,8,0.0,36.8,100,0.00,,,0.00,VWS V14.00,2013-12-15 22:44:00,
2013-12-15 17:50:00,21.2,21.2,29.52,North,8,0.0,36.8,100,0.00,,,0.00,VWS V14.00,2013-12-15 22:50:00,
2013-12-15 17:56:00,21.2,21.2,29.52,North,8,0.0,36.8,100,0.00,,,0.00,VWS V14.00,2013-12-15 22:56:00,
2013-12-15 18:02:00,21.2,21.2,29.52,North,8,0.0,36.8,100,0.00,,,0.00,VWS V14.00,2013-12-15 23:02:00,
2013-12-15 18:08:00,21.0,21.0,29.52,North,8,0.0,36.8,100,0.00,,,0.00,VWS V14.00,2013-12-15 23:08:00,
2013-12-15 18:14:00,21.1,21.1,29.52,NNW,332,0.0,36.8,100,0.00,,,0.00,VWS V14.00,2013-12-15 23:14:00,
2013-12-15 18:20:00,21.0,21.0,29.52,NNW,332,0.0,36.8,100,0.00,,,0.00,VWS V14.00,2013-12-15 23:20:00,
2013-12-15 18:26:00,21.0,21.0,29.53,North,349,6.0,36.8,100,0.00,,,0.00,VWS V14.00,2013-12-15 23:26:00,
2013-12-15 18:32:00,20.9,20.9,29.53,NNW,330,7.8,36.8,100,0.00,,,0.00,VWS V14.00,2013-12-15 23:32:00,
2013-12-15 18:38:00,20.8,20.8,29.53,NNW,336,6.8,36.8,100,0.00,,,0.00,VWS V14.00,2013-12-15 23:38:00,
2013-12-15 18:44:00,20.9,20.9,29.53,NW,319,8.1,36.8,100,0.00,,,0.00,VWS V14.00,2013-12-15 23:44:00,
2013-12-15 18:50:00,20.9,20.9,29.53,NW,325,6.4,36.8,100,0.00,,,0.00,VWS V14.00,2013-12-15 23:50:00,
2013-12-15 18:56:00,20.8,20.8,29.53,NNW,329,7.2,36.8,100,0.00,,,0.00,VWS V14.00,2013-12-15 23:56:00,
2013-12-15 19:02:00,20.8,20.8,29.53,NNW,329,7.5,36.8,100,0.00,,,0.00,VWS V14.00,2013-12-16 00:02:00,
2013-12-15 19:08:00,20.6,20.6,29.53,NW,322,6.9,36.8,100,0.00,,,0.00,VWS V14.00,2013-12-16 00:08:00,
2013-12-15 19:14:00,20.5,20.5,29.54,NNW,329,8.5,36.8,100,0.00,,,0.00,VWS V14.00,2013-12-16 00:14:00,
2013-12-15 19:20:00,20.6,20.6,29.54,NW,318,7.6,36.8,100,0.00,,,0.00,VWS V14.00,2013-12-16 00:20:00,
2013-12-15 19:26:00,20.7,20.7,29.54,NNW,332,7.0,36.8,100,0.00,,,0.00,VWS V14.00,2013-12-16 00:26:00,
2013-12-15 19:32:00,20.9,20.9,29.55,NNW,333,7.0,36.8,100,0.00,,,0.00,VWS V14.00,2013-12-16 00:32:00,
2013-12-15 19:38:00,20.9,20.9,29.54,NW,325,7.0,36.8,100,0.00,,,0.00,VWS V14.00,2013-12-16 00:38:00,
2013-12-15 19:44:00,20.9,20.9,29.55,NNW,328,9.5,36.8,100,0.00,,,0.00,VWS V14.00,2013-12-16 00:44:00,
2013-12-15 19:50:00,21.0,21.0,29.55,NW,322,7.6,36.8,100,0.00,,,0.00,VWS V14.00,2013-12-16 00:50:00,
2013-12-15 19:56:00,21.1,21.1,29.55,NNW,332,7.5,36.8,100,0.00,,,0.00,VWS V14.00,2013-12-16 00:56:00,
2013-12-15 20:02:00,21.1,21.1,29.55,NW,326,8.0,36.8,100,0.00,,,0.00,VWS V14.00,2013-12-16 01:02:00,
2013-12-15 20:09:00,21.2,21.2,29.55,NNW,335,8.0,36.8,100,0.00,,,0.00,VWS V14.00,2013-12-16 01:09:00,
2013-12-15 20:15:00,21.2,21.2,29.55,NNW,328,8.3,36.8,100,0.00,,,0.00,VWS V14.00,2013-12-16 01:15:00,
2013-12-15 20:21:00,21.1,21.1,29.55,NNW,335,7.9,36.8,100,0.00,,,0.00,VWS V14.00,2013-12-16 01:21:00,
2013-12-15 20:27:00,21.1,21.1,29.55,NNW,339,8.6,36.8,100,0.00,,,0.00,VWS V14.00,2013-12-16 01:27:00,
2013-12-15 20:33:00,21.2,21.2,29.55,NNW,330,7.9,36.8,100,0.00,,,0.00,VWS V14.00,2013-12-16 01:33:00,
2013-12-15 20:39:00,21.1,21.1,29.54,NNW,332,6.3,36.8,100,0.00,,,0.00,VWS V14.00,2013-12-16 01:39:00,
2013-12-15 20:45:00,21.1,21.1,29.55,NW,326,8.1,36.8,100,0.00,,,0.00,VWS V14.00,2013-12-16 01:45:00,
2013-12-15 20:51:00,20.9,20.9,29.54,NNW,330,8.4,36.8,100,0.00,,,0.00,VWS V14.00,2013-12-16 01:51:00,
2013-12-15 20:57:00,20.8,20.8,29.55,NNW,338,3.4,36.8,100,0.00,,,0.00,VWS V14.00,2013-12-16 01:57:00,
2013-12-15 21:03:00,20.6,20.6,29.55,NNW,328,8.6,36.8,100,0.00,,,0.00,VWS V14.00,2013-12-16 02:03:00,
2013-12-15 21:09:00,20.6,20.6,29.55,NNW,336,7.1,36.8,100,0.00,,,0.00,VWS V14.00,2013-12-16 02:09:00,
2013-12-15 21:15:00,20.5,20.5,29.55,NNW,336,7.1,36.8,100,0.00,,,0.00,VWS V14.00,2013-12-16 02:15:00,
2013-12-15 21:21:00,20.2,20.2,29.56,NNW,329,7.0,36.8,100,0.00,,,0.00,VWS V14.00,2013-12-16 02:21:00,
2013-12-15 21:27:00,20.1,20.1,29.56,NNW,332,7.5,36.8,100,0.00,,,0.00,VWS V14.00,2013-12-16 02:27:00,
2013-12-15 21:33:00,20.1,20.1,29.56,NNW,330,7.7,36.8,100,0.00,,,0.00,VWS V14.00,2013-12-16 02:33:00,
2013-12-15 21:39:00,20.0,20.0,29.56,NNW,329,6.8,36.8,100,0.00,,,0.00,VWS V14.00,2013-12-16 02:39:00,
2013-12-15 21:45:00,19.9,19.9,29.56,NNW,330,7.5,36.8,100,0.00,,,0.00,VWS V14.00,2013-12-16 02:45:00,
2013-12-15 21:51:00,19.8,19.8,29.56,NNW,328,7.4,36.8,100,0.00,,,0.00,VWS V14.00,2013-12-16 02:51:00,
2013-12-15 21:57:00,19.8,19.8,29.56,NNW,328,6.0,36.8,100,0.00,,,0.00,VWS V14.00,2013-12-16 02:57:00,
2013-12-15 22:03:00,19.8,19.8,29.56,NNW,328,6.6,36.8,100,0.00,,,0.00,VWS V14.00,2013-12-16 03:03:00,
2013-12-15 22:09:00,19.6,19.6,29.57,NW,326,5.3,36.8,100,0.00,,,0.00,VWS V14.00,2013-12-16 03:09:00,
2013-12-15 22:15:00,19.5,19.5,29.58,NNW,328,6.3,36.8,100,0.00,,,0.00,VWS V14.00,2013-12-16 03:15:00,
2013-12-15 22:21:00,19.5,19.5,29.57,NNW,329,5.6,36.8,100,0.00,,,0.00,VWS V14.00,2013-12-16 03:21:00,
2013-12-15 22:27:00,19.2,19.2,29.57,NW,326,5.5,36.8,100,0.00,,,0.00,VWS V14.00,2013-12-16 03:27:00,
2013-12-15 22:33:00,19.1,19.1,29.58,NNW,328,5.2,36.8,100,0.00,,,0.00,VWS V14.00,2013-12-16 03:33:00,
2013-12-15 22:39:00,19.0,19.0,29.57,NW,325,5.2,36.8,100,0.00,,,0.00,VWS V14.00,2013-12-16 03:39:00,
2013-12-15 22:45:00,19.0,19.0,29.58,NW,325,4.7,36.8,100,0.00,,,0.00,VWS V14.00,2013-12-16 03:45:00,
2013-12-15 22:51:00,18.9,18.9,29.58,NW,326,4.8,36.8,100,0.00,,,0.00,VWS V14.00,2013-12-16 03:51:00,
2013-12-15 22:54:00,18.9,18.9,29.58,NW,326,3.4,36.8,100,0.00,,,0.00,VWS V14.00,2013-12-16 03:54:00,
2013-12-15 23:00:00,18.8,18.8,29.58,NW,326,3.4,36.8,100,0.00,,,0.00,VWS V14.00,2013-12-16 04:00:00,
2013-12-15 23:06:00,18.8,18.8,29.58,NNW,328,4.3,36.8,100,0.00,,,0.00,VWS V14.00,2013-12-16 04:06:00,
2013-12-15 23:12:00,18.8,18.8,29.58,NW,323,4.8,36.8,100,0.00,,,0.00,VWS V14.00,2013-12-16 04:12:00,
2013-12-15 23:18:00,18.8,18.8,29.58,NNW,329,5.0,36.8,100,0.00,,,0.00,VWS V14.00,2013-12-16 04:18:00,
2013-12-15 23:24:00,18.8,18.8,29.58,NNW,328,4.3,36.8,100,0.00,,,0.00,VWS V14.00,2013-12-16 04:24:00,
2013-12-15 23:30:00,18.8,18.8,29.58,NW,326,4.7,6.0,100,0.00,,,0.00,VWS V14.00,2013-12-16 04:30:00,
2013-12-15 23:36:00,18.8,18.8,29.58,NNW,328,5.1,6.2,100,0.00,,,0.00,VWS V14.00,2013-12-16 04:36:00,
2013-12-15 23:40:00,15.5,15.5,29.95,SE,125,11.7,31.3,100,0.00,,,0.00,VWS V14.00,2013-12-16 04:40:00,
2013-12-15 23:42:00,18.7,18.7,29.58,NNW,328,6.1,6.2,100,0.00,,,0.00,VWS V14.00,2013-12-16 04:42:00,
2013-12-15 23:48:00,18.7,18.7,29.58,NNW,330,4.2,6.7,100,0.00,,,0.00,VWS V14.00,2013-12-16 04:48:00,
2013-12-15 23:50:00,15.6,15.6,29.93,ENE,62,16.2,30.9,100,0.00,,,0.00,VWS V14.00,2013-12-16 04:50:00,
2013-12-15 23:54:00,18.8,18.8,29.58,NW,318,5.7,7.5,100,0.00,,,0.00,VWS V14.00,2013-12-16 04:54:00,